sensor_id;sensor_type;location;lat;lon;timestamp;temperature;humidity
7876;DHT22;69649;53.712;9.680;2023-06-14T00:00:14;14.50;67.40
7876;DHT22;69649;53.712;9.680;2023-06-14T00:02:40;14.60;67.40
7876;DHT22;69649;53.712;9.680;2023-06-14T00:05:07;14.60;67.50
7876;DHT22;69649;53.712;9.680;2023-06-14T00:07:38;14.60;67.60
7876;DHT22;69649;53.712;9.680;2023-06-14T00:10:06;14.60;67.40
7876;DHT22;69649;53.712;9.680;2023-06-14T00:12:32;14.50;67.70
7876;DHT22;69649;53.712;9.680;2023-06-14T00:15:00;14.50;67.70
7876;DHT22;69649;53.712;9.680;2023-06-14T00:17:28;14.40;68.30
7876;DHT22;69649;53.712;9.680;2023-06-14T00:19:58;14.30;68.00
7876;DHT22;69649;53.712;9.680;2023-06-14T00:22:25;14.30;68.20
7876;DHT22;69649;53.712;9.680;2023-06-14T00:24:51;14.40;68.20
7876;DHT22;69649;53.712;9.680;2023-06-14T00:27:17;14.30;68.50
7876;DHT22;69649;53.712;9.680;2023-06-14T00:29:43;14.10;69.00
7876;DHT22;69649;53.712;9.680;2023-06-14T00:32:09;14.10;69.30
7876;DHT22;69649;53.712;9.680;2023-06-14T00:34:35;14.10;68.90
7876;DHT22;69649;53.712;9.680;2023-06-14T00:37:01;14.10;68.90
7876;DHT22;69649;53.712;9.680;2023-06-14T00:39:27;14.10;69.20
7876;DHT22;69649;53.712;9.680;2023-06-14T00:41:52;14.10;69.50
7876;DHT22;69649;53.712;9.680;2023-06-14T00:44:18;14.10;69.50
7876;DHT22;69649;53.712;9.680;2023-06-14T00:46:45;14.10;69.10
7876;DHT22;69649;53.712;9.680;2023-06-14T00:49:12;14.20;69.00
7876;DHT22;69649;53.712;9.680;2023-06-14T00:52:00;14.20;69.20
7876;DHT22;69649;53.712;9.680;2023-06-14T00:54:27;14.10;69.00
7876;DHT22;69649;53.712;9.680;2023-06-14T00:56:53;14.10;69.40
7876;DHT22;69649;53.712;9.680;2023-06-14T00:59:19;14.00;69.60
7876;DHT22;69649;53.712;9.680;2023-06-14T01:01:44;13.90;70.10
7876;DHT22;69649;53.712;9.680;2023-06-14T01:04:11;13.90;70.20
7876;DHT22;69649;53.712;9.680;2023-06-14T01:06:44;13.80;70.40
7876;DHT22;69649;53.712;9.680;2023-06-14T01:09:44;13.70;70.60
7876;DHT22;69649;53.712;9.680;2023-06-14T01:12:17;13.70;70.60
7876;DHT22;69649;53.712;9.680;2023-06-14T01:14:41;13.80;70.40
7876;DHT22;69649;53.712;9.680;2023-06-14T01:17:08;13.70;70.70
7876;DHT22;69649;53.712;9.680;2023-06-14T01:19:35;13.70;70.80
7876;DHT22;69649;53.712;9.680;2023-06-14T01:22:02;13.70;70.80
7876;DHT22;69649;53.712;9.680;2023-06-14T01:24:28;13.70;70.80
7876;DHT22;69649;53.712;9.680;2023-06-14T01:26:56;13.60;70.90
7876;DHT22;69649;53.712;9.680;2023-06-14T01:29:23;13.60;71.40
7876;DHT22;69649;53.712;9.680;2023-06-14T01:31:51;13.60;71.50
7876;DHT22;69649;53.712;9.680;2023-06-14T01:34:17;13.60;71.50
7876;DHT22;69649;53.712;9.680;2023-06-14T01:36:44;13.60;71.60
7876;DHT22;69649;53.712;9.680;2023-06-14T01:39:13;13.60;71.60
7876;DHT22;69649;53.712;9.680;2023-06-14T01:41:40;13.50;71.80
7876;DHT22;69649;53.712;9.680;2023-06-14T01:44:06;13.50;71.70
7876;DHT22;69649;53.712;9.680;2023-06-14T01:46:33;13.50;71.70
7876;DHT22;69649;53.712;9.680;2023-06-14T01:48:59;13.50;72.00
7876;DHT22;69649;53.712;9.680;2023-06-14T01:53:53;13.50;72.00
7876;DHT22;69649;53.712;9.680;2023-06-14T01:56:19;13.50;71.80
7876;DHT22;69649;53.712;9.680;2023-06-14T01:58:45;13.50;71.80
7876;DHT22;69649;53.712;9.680;2023-06-14T02:01:11;13.50;72.00
7876;DHT22;69649;53.712;9.680;2023-06-14T02:03:38;13.50;72.10
7876;DHT22;69649;53.712;9.680;2023-06-14T02:06:04;13.50;72.20
7876;DHT22;69649;53.712;9.680;2023-06-14T02:08:30;13.40;72.50
7876;DHT22;69649;53.712;9.680;2023-06-14T02:10:55;13.50;72.40
7876;DHT22;69649;53.712;9.680;2023-06-14T02:13:21;13.50;72.20
7876;DHT22;69649;53.712;9.680;2023-06-14T02:15:47;13.50;72.20
7876;DHT22;69649;53.712;9.680;2023-06-14T02:18:15;13.40;72.20
7876;DHT22;69649;53.712;9.680;2023-06-14T02:20:42;13.30;72.30
7876;DHT22;69649;53.712;9.680;2023-06-14T02:23:07;13.30;72.40
7876;DHT22;69649;53.712;9.680;2023-06-14T02:25:33;13.30;72.40
7876;DHT22;69649;53.712;9.680;2023-06-14T02:27:59;13.30;72.40
7876;DHT22;69649;53.712;9.680;2023-06-14T02:30:25;13.30;72.50
7876;DHT22;69649;53.712;9.680;2023-06-14T02:32:51;13.30;72.30
7876;DHT22;69649;53.712;9.680;2023-06-14T02:35:18;13.30;72.30
7876;DHT22;69649;53.712;9.680;2023-06-14T02:37:46;13.20;72.50
7876;DHT22;69649;53.712;9.680;2023-06-14T02:40:12;13.20;72.50
7876;DHT22;69649;53.712;9.680;2023-06-14T02:42:37;13.20;72.50
7876;DHT22;69649;53.712;9.680;2023-06-14T02:45:04;13.20;72.60
7876;DHT22;69649;53.712;9.680;2023-06-14T02:47:30;13.10;72.60
7876;DHT22;69649;53.712;9.680;2023-06-14T02:49:55;13.10;72.60
7876;DHT22;69649;53.712;9.680;2023-06-14T02:52:21;13.10;72.60
7876;DHT22;69649;53.712;9.680;2023-06-14T02:54:47;13.10;72.70
7876;DHT22;69649;53.712;9.680;2023-06-14T02:57:14;13.10;72.70
7876;DHT22;69649;53.712;9.680;2023-06-14T02:59:40;13.00;72.90
7876;DHT22;69649;53.712;9.680;2023-06-14T03:02:06;13.00;72.90
7876;DHT22;69649;53.712;9.680;2023-06-14T03:04:31;13.10;72.90
7876;DHT22;69649;53.712;9.680;2023-06-14T03:07:02;13.00;72.80
7876;DHT22;69649;53.712;9.680;2023-06-14T03:09:30;12.90;73.10
7876;DHT22;69649;53.712;9.680;2023-06-14T03:11:56;12.90;73.20
7876;DHT22;69649;53.712;9.680;2023-06-14T03:14:22;12.90;73.40
7876;DHT22;69649;53.712;9.680;2023-06-14T03:16:48;12.90;73.30
7876;DHT22;69649;53.712;9.680;2023-06-14T03:19:15;12.80;73.30
7876;DHT22;69649;53.712;9.680;2023-06-14T03:21:42;12.80;73.50
7876;DHT22;69649;53.712;9.680;2023-06-14T03:24:10;12.80;73.50
7876;DHT22;69649;53.712;9.680;2023-06-14T03:26:35;12.80;73.40
7876;DHT22;69649;53.712;9.680;2023-06-14T03:29:02;12.80;73.60
7876;DHT22;69649;53.712;9.680;2023-06-14T03:31:29;12.80;73.50
7876;DHT22;69649;53.712;9.680;2023-06-14T03:33:58;12.80;73.70
7876;DHT22;69649;53.712;9.680;2023-06-14T03:36:24;12.80;73.80
7876;DHT22;69649;53.712;9.680;2023-06-14T03:38:51;12.80;73.80
7876;DHT22;69649;53.712;9.680;2023-06-14T03:41:17;12.90;73.80
7876;DHT22;69649;53.712;9.680;2023-06-14T03:43:42;12.90;73.80
7876;DHT22;69649;53.712;9.680;2023-06-14T03:46:08;12.90;74.00
7876;DHT22;69649;53.712;9.680;2023-06-14T03:48:34;12.90;73.90
7876;DHT22;69649;53.712;9.680;2023-06-14T03:50:59;13.00;73.90
7876;DHT22;69649;53.712;9.680;2023-06-14T03:53:25;13.00;74.00
7876;DHT22;69649;53.712;9.680;2023-06-14T03:55:53;13.00;73.90
7876;DHT22;69649;53.712;9.680;2023-06-14T03:58:19;13.10;74.00
7876;DHT22;69649;53.712;9.680;2023-06-14T04:00:45;13.10;74.00
7876;DHT22;69649;53.712;9.680;2023-06-14T04:03:11;13.10;73.80
7876;DHT22;69649;53.712;9.680;2023-06-14T04:05:39;13.10;74.10
7876;DHT22;69649;53.712;9.680;2023-06-14T04:08:06;13.10;74.10
7876;DHT22;69649;53.712;9.680;2023-06-14T04:10:34;13.10;74.40
7876;DHT22;69649;53.712;9.680;2023-06-14T04:13:00;13.20;74.40
7876;DHT22;69649;53.712;9.680;2023-06-14T04:15:26;13.30;74.30
7876;DHT22;69649;53.712;9.680;2023-06-14T04:17:54;13.30;74.30
7876;DHT22;69649;53.712;9.680;2023-06-14T04:20:21;13.40;74.30
7876;DHT22;69649;53.712;9.680;2023-06-14T04:22:51;13.40;74.20
7876;DHT22;69649;53.712;9.680;2023-06-14T04:25:18;13.50;74.20
7876;DHT22;69649;53.712;9.680;2023-06-14T04:27:44;13.50;74.30
7876;DHT22;69649;53.712;9.680;2023-06-14T04:30:10;13.60;74.30
7876;DHT22;69649;53.712;9.680;2023-06-14T04:32:36;13.70;74.10
7876;DHT22;69649;53.712;9.680;2023-06-14T04:35:05;13.70;74.10
7876;DHT22;69649;53.712;9.680;2023-06-14T04:37:31;13.90;74.00
7876;DHT22;69649;53.712;9.680;2023-06-14T04:39:57;13.90;74.10
7876;DHT22;69649;53.712;9.680;2023-06-14T04:42:23;14.00;74.00
7876;DHT22;69649;53.712;9.680;2023-06-14T04:44:51;14.00;73.90
7876;DHT22;69649;53.712;9.680;2023-06-14T04:47:19;14.20;73.70
7876;DHT22;69649;53.712;9.680;2023-06-14T04:49:46;14.20;73.50
7876;DHT22;69649;53.712;9.680;2023-06-14T04:52:12;14.30;73.40
7876;DHT22;69649;53.712;9.680;2023-06-14T04:54:41;14.30;73.30
7876;DHT22;69649;53.712;9.680;2023-06-14T04:57:10;14.40;73.20
7876;DHT22;69649;53.712;9.680;2023-06-14T04:59:38;14.40;73.10
7876;DHT22;69649;53.712;9.680;2023-06-14T05:02:04;14.50;73.00
7876;DHT22;69649;53.712;9.680;2023-06-14T05:04:30;14.50;72.90
7876;DHT22;69649;53.712;9.680;2023-06-14T05:06:56;14.70;72.80
7876;DHT22;69649;53.712;9.680;2023-06-14T05:09:22;14.70;72.70
7876;DHT22;69649;53.712;9.680;2023-06-14T05:11:48;14.80;72.70
7876;DHT22;69649;53.712;9.680;2023-06-14T05:14:16;14.90;72.40
7876;DHT22;69649;53.712;9.680;2023-06-14T05:16:42;14.90;72.10
7876;DHT22;69649;53.712;9.680;2023-06-14T05:19:08;15.00;72.00
7876;DHT22;69649;53.712;9.680;2023-06-14T05:21:36;15.10;71.90
7876;DHT22;69649;53.712;9.680;2023-06-14T05:24:03;15.20;71.50
7876;DHT22;69649;53.712;9.680;2023-06-14T05:26:29;15.20;71.30
7876;DHT22;69649;53.712;9.680;2023-06-14T05:28:56;15.30;71.10
7876;DHT22;69649;53.712;9.680;2023-06-14T05:31:27;15.40;70.70
7876;DHT22;69649;53.712;9.680;2023-06-14T05:33:53;15.60;70.50
7876;DHT22;69649;53.712;9.680;2023-06-14T05:36:20;15.70;70.00
7876;DHT22;69649;53.712;9.680;2023-06-14T05:38:46;16.00;69.30
7876;DHT22;69649;53.712;9.680;2023-06-14T05:41:12;16.00;69.00
7876;DHT22;69649;53.712;9.680;2023-06-14T05:43:38;15.90;69.00
7876;DHT22;69649;53.712;9.680;2023-06-14T05:46:04;16.00;68.70
7876;DHT22;69649;53.712;9.680;2023-06-14T05:48:30;16.10;68.70
7876;DHT22;69649;53.712;9.680;2023-06-14T05:50:57;16.20;68.10
7876;DHT22;69649;53.712;9.680;2023-06-14T05:53:22;16.40;67.90
7876;DHT22;69649;53.712;9.680;2023-06-14T05:55:50;16.40;67.30
7876;DHT22;69649;53.712;9.680;2023-06-14T05:58:17;16.50;66.50
7876;DHT22;69649;53.712;9.680;2023-06-14T06:00:43;16.60;67.20
7876;DHT22;69649;53.712;9.680;2023-06-14T06:03:08;16.80;66.70
7876;DHT22;69649;53.712;9.680;2023-06-14T06:05:34;16.90;66.50
7876;DHT22;69649;53.712;9.680;2023-06-14T06:08:00;17.00;66.00
7876;DHT22;69649;53.712;9.680;2023-06-14T06:10:26;17.20;64.60
7876;DHT22;69649;53.712;9.680;2023-06-14T06:12:52;17.10;65.00
7876;DHT22;69649;53.712;9.680;2023-06-14T06:15:20;17.30;65.30
7876;DHT22;69649;53.712;9.680;2023-06-14T06:17:46;17.50;65.10
7876;DHT22;69649;53.712;9.680;2023-06-14T06:20:12;17.80;65.00
7876;DHT22;69649;53.712;9.680;2023-06-14T06:22:38;18.00;63.80
7876;DHT22;69649;53.712;9.680;2023-06-14T06:25:05;18.00;63.50
7876;DHT22;69649;53.712;9.680;2023-06-14T06:27:32;18.10;62.70
7876;DHT22;69649;53.712;9.680;2023-06-14T06:29:58;18.00;62.30
7876;DHT22;69649;53.712;9.680;2023-06-14T06:32:24;18.10;62.90
7876;DHT22;69649;53.712;9.680;2023-06-14T06:34:50;18.30;62.50
7876;DHT22;69649;53.712;9.680;2023-06-14T06:37:17;18.50;62.10
7876;DHT22;69649;53.712;9.680;2023-06-14T06:39:43;18.70;61.50
7876;DHT22;69649;53.712;9.680;2023-06-14T06:42:09;18.70;60.10
7876;DHT22;69649;53.712;9.680;2023-06-14T06:44:36;18.70;59.40
7876;DHT22;69649;53.712;9.680;2023-06-14T06:47:02;18.90;60.40
7876;DHT22;69649;53.712;9.680;2023-06-14T06:49:28;19.00;60.20
7876;DHT22;69649;53.712;9.680;2023-06-14T06:52:01;19.20;58.70
7876;DHT22;69649;53.712;9.680;2023-06-14T06:54:27;19.30;58.40
7876;DHT22;69649;53.712;9.680;2023-06-14T06:56:53;19.30;57.40
7876;DHT22;69649;53.712;9.680;2023-06-14T06:59:19;19.10;56.80
7876;DHT22;69649;53.712;9.680;2023-06-14T07:01:46;19.10;57.50
7876;DHT22;69649;53.712;9.680;2023-06-14T07:04:13;19.30;57.10
7876;DHT22;69649;53.712;9.680;2023-06-14T07:06:39;19.50;57.40
7876;DHT22;69649;53.712;9.680;2023-06-14T07:09:04;19.70;57.80
7876;DHT22;69649;53.712;9.680;2023-06-14T07:11:32;19.90;57.40
7876;DHT22;69649;53.712;9.680;2023-06-14T07:13:58;20.00;55.90
7876;DHT22;69649;53.712;9.680;2023-06-14T07:16:24;19.90;56.10
7876;DHT22;69649;53.712;9.680;2023-06-14T07:18:50;20.00;56.40
7876;DHT22;69649;53.712;9.680;2023-06-14T07:21:16;20.10;57.10
7876;DHT22;69649;53.712;9.680;2023-06-14T07:23:42;20.30;55.50
7876;DHT22;69649;53.712;9.680;2023-06-14T07:26:08;20.40;55.00
7876;DHT22;69649;53.712;9.680;2023-06-14T07:28:34;20.30;55.10
7876;DHT22;69649;53.712;9.680;2023-06-14T07:30:59;20.50;55.10
7876;DHT22;69649;53.712;9.680;2023-06-14T07:33:25;20.50;54.70
7876;DHT22;69649;53.712;9.680;2023-06-14T07:35:51;20.60;54.30
7876;DHT22;69649;53.712;9.680;2023-06-14T07:38:18;20.60;53.90
7876;DHT22;69649;53.712;9.680;2023-06-14T07:40:44;20.80;54.70
7876;DHT22;69649;53.712;9.680;2023-06-14T07:43:10;20.90;55.40
7876;DHT22;69649;53.712;9.680;2023-06-14T07:45:37;20.90;55.00
7876;DHT22;69649;53.712;9.680;2023-06-14T07:48:03;21.00;53.90
7876;DHT22;69649;53.712;9.680;2023-06-14T07:50:29;21.10;55.10
7876;DHT22;69649;53.712;9.680;2023-06-14T07:53:15;21.10;53.30
7876;DHT22;69649;53.712;9.680;2023-06-14T07:55:41;21.20;53.40
7876;DHT22;69649;53.712;9.680;2023-06-14T07:58:09;21.40;51.60
7876;DHT22;69649;53.712;9.680;2023-06-14T08:00:35;21.50;52.50
7876;DHT22;69649;53.712;9.680;2023-06-14T08:03:00;21.50;50.90
7876;DHT22;69649;53.712;9.680;2023-06-14T08:05:27;21.30;52.60
7876;DHT22;69649;53.712;9.680;2023-06-14T08:07:53;21.40;52.70
7876;DHT22;69649;53.712;9.680;2023-06-14T08:10:20;21.70;51.90
7876;DHT22;69649;53.712;9.680;2023-06-14T08:12:46;21.50;51.20
7876;DHT22;69649;53.712;9.680;2023-06-14T08:15:12;21.60;50.40
7876;DHT22;69649;53.712;9.680;2023-06-14T08:17:37;21.50;51.40
7876;DHT22;69649;53.712;9.680;2023-06-14T08:20:04;21.70;50.60
7876;DHT22;69649;53.712;9.680;2023-06-14T08:22:31;21.50;52.00
7876;DHT22;69649;53.712;9.680;2023-06-14T08:24:59;21.70;52.10
7876;DHT22;69649;53.712;9.680;2023-06-14T08:27:26;21.90;51.20
7876;DHT22;69649;53.712;9.680;2023-06-14T08:29:53;21.90;53.30
7876;DHT22;69649;53.712;9.680;2023-06-14T08:32:19;21.90;53.20
7876;DHT22;69649;53.712;9.680;2023-06-14T08:34:45;22.00;51.80
7876;DHT22;69649;53.712;9.680;2023-06-14T08:37:11;22.20;50.50
7876;DHT22;69649;53.712;9.680;2023-06-14T08:39:37;22.40;52.00
7876;DHT22;69649;53.712;9.680;2023-06-14T08:42:03;22.50;51.90
7876;DHT22;69649;53.712;9.680;2023-06-14T08:44:30;22.60;51.10
7876;DHT22;69649;53.712;9.680;2023-06-14T08:46:56;22.70;51.50
7876;DHT22;69649;53.712;9.680;2023-06-14T08:49:25;22.60;49.30
7876;DHT22;69649;53.712;9.680;2023-06-14T08:51:59;22.50;51.30
7876;DHT22;69649;53.712;9.680;2023-06-14T08:54:45;22.70;50.40
7876;DHT22;69649;53.712;9.680;2023-06-14T08:57:11;22.90;51.20
7876;DHT22;69649;53.712;9.680;2023-06-14T08:59:45;23.10;50.80
7876;DHT22;69649;53.712;9.680;2023-06-14T09:02:10;23.40;50.20
7876;DHT22;69649;53.712;9.680;2023-06-14T09:04:38;23.50;49.50
7876;DHT22;69649;53.712;9.680;2023-06-14T09:07:05;23.60;49.50
7876;DHT22;69649;53.712;9.680;2023-06-14T09:09:32;23.80;46.90
7876;DHT22;69649;53.712;9.680;2023-06-14T09:11:57;23.60;47.30
7876;DHT22;69649;53.712;9.680;2023-06-14T09:14:24;23.50;49.70
7876;DHT22;69649;53.712;9.680;2023-06-14T09:16:55;23.40;47.20
7876;DHT22;69649;53.712;9.680;2023-06-14T09:19:23;23.40;46.90
7876;DHT22;69649;53.712;9.680;2023-06-14T09:21:49;23.20;47.50
7876;DHT22;69649;53.712;9.680;2023-06-14T09:24:15;23.20;47.30
7876;DHT22;69649;53.712;9.680;2023-06-14T09:26:41;23.40;48.70
7876;DHT22;69649;53.712;9.680;2023-06-14T09:29:06;23.30;47.10
7876;DHT22;69649;53.712;9.680;2023-06-14T09:31:32;23.60;47.90
7876;DHT22;69649;53.712;9.680;2023-06-14T09:34:01;23.90;48.00
7876;DHT22;69649;53.712;9.680;2023-06-14T09:36:28;23.90;48.80
7876;DHT22;69649;53.712;9.680;2023-06-14T09:39:02;24.10;47.70
7876;DHT22;69649;53.712;9.680;2023-06-14T09:41:38;24.10;47.90
7876;DHT22;69649;53.712;9.680;2023-06-14T09:44:06;24.10;48.40
7876;DHT22;69649;53.712;9.680;2023-06-14T09:46:33;24.30;48.00
7876;DHT22;69649;53.712;9.680;2023-06-14T09:49:01;24.30;45.90
7876;DHT22;69649;53.712;9.680;2023-06-14T09:51:28;24.40;47.70
7876;DHT22;69649;53.712;9.680;2023-06-14T09:53:59;24.60;46.00
7876;DHT22;69649;53.712;9.680;2023-06-14T09:56:28;24.40;46.80
7876;DHT22;69649;53.712;9.680;2023-06-14T09:58:58;24.60;47.10
7876;DHT22;69649;53.712;9.680;2023-06-14T10:01:26;24.60;45.90
7876;DHT22;69649;53.712;9.680;2023-06-14T10:04:07;24.60;47.00
7876;DHT22;69649;53.712;9.680;2023-06-14T10:06:31;24.80;46.90
7876;DHT22;69649;53.712;9.680;2023-06-14T10:09:00;24.90;44.70
7876;DHT22;69649;53.712;9.680;2023-06-14T10:11:27;24.90;44.30
7876;DHT22;69649;53.712;9.680;2023-06-14T10:13:54;24.90;44.40
7876;DHT22;69649;53.712;9.680;2023-06-14T10:19:42;25.00;44.30
7876;DHT22;69649;53.712;9.680;2023-06-14T10:22:21;25.10;44.50
7876;DHT22;69649;53.712;9.680;2023-06-14T10:24:48;25.00;43.60
7876;DHT22;69649;53.712;9.680;2023-06-14T10:27:16;24.80;44.40
7876;DHT22;69649;53.712;9.680;2023-06-14T10:32:22;24.40;45.00
7876;DHT22;69649;53.712;9.680;2023-06-14T10:35:01;24.60;44.50
7876;DHT22;69649;53.712;9.680;2023-06-14T10:37:28;25.00;44.60
7876;DHT22;69649;53.712;9.680;2023-06-14T10:39:54;25.00;43.20
7876;DHT22;69649;53.712;9.680;2023-06-14T10:42:20;24.80;43.40
7876;DHT22;69649;53.712;9.680;2023-06-14T10:44:55;25.00;44.00
7876;DHT22;69649;53.712;9.680;2023-06-14T10:47:34;25.30;44.50
7876;DHT22;69649;53.712;9.680;2023-06-14T10:50:08;25.60;44.80
7876;DHT22;69649;53.712;9.680;2023-06-14T10:52:39;25.20;42.40
7876;DHT22;69649;53.712;9.680;2023-06-14T10:55:14;25.00;45.90
7876;DHT22;69649;53.712;9.680;2023-06-14T10:57:47;25.00;44.00
7876;DHT22;69649;53.712;9.680;2023-06-14T11:00:12;25.40;43.60
7876;DHT22;69649;53.712;9.680;2023-06-14T11:02:46;25.80;43.70
7876;DHT22;69649;53.712;9.680;2023-06-14T11:05:20;26.00;44.50
7876;DHT22;69649;53.712;9.680;2023-06-14T11:10:33;25.80;44.70
7876;DHT22;69649;53.712;9.680;2023-06-14T11:12:54;25.80;44.20
7876;DHT22;69649;53.712;9.680;2023-06-14T11:15:29;25.70;44.30
7876;DHT22;69649;53.712;9.680;2023-06-14T11:18:00;25.10;44.90
7876;DHT22;69649;53.712;9.680;2023-06-14T11:20:27;25.30;44.50
7876;DHT22;69649;53.712;9.680;2023-06-14T11:22:53;25.30;44.90
7876;DHT22;69649;53.712;9.680;2023-06-14T11:25:20;25.30;43.80
7876;DHT22;69649;53.712;9.680;2023-06-14T11:27:48;25.50;44.50
7876;DHT22;69649;53.712;9.680;2023-06-14T11:30:14;25.70;42.80
7876;DHT22;69649;53.712;9.680;2023-06-14T11:32:40;25.70;44.80
7876;DHT22;69649;53.712;9.680;2023-06-14T11:35:07;25.80;44.90
7876;DHT22;69649;53.712;9.680;2023-06-14T11:37:35;26.10;44.10
7876;DHT22;69649;53.712;9.680;2023-06-14T11:40:03;25.80;43.40
7876;DHT22;69649;53.712;9.680;2023-06-14T11:42:31;25.50;43.70
7876;DHT22;69649;53.712;9.680;2023-06-14T11:44:57;25.40;44.80
7876;DHT22;69649;53.712;9.680;2023-06-14T11:47:23;25.60;44.00
7876;DHT22;69649;53.712;9.680;2023-06-14T11:49:50;26.10;44.00
7876;DHT22;69649;53.712;9.680;2023-06-14T11:52:16;26.50;42.50
7876;DHT22;69649;53.712;9.680;2023-06-14T11:54:42;26.50;42.80
7876;DHT22;69649;53.712;9.680;2023-06-14T11:57:08;26.40;44.00
7876;DHT22;69649;53.712;9.680;2023-06-14T11:59:40;26.80;44.00
7876;DHT22;69649;53.712;9.680;2023-06-14T12:02:07;27.10;43.30
7876;DHT22;69649;53.712;9.680;2023-06-14T12:04:33;27.20;42.50
7876;DHT22;69649;53.712;9.680;2023-06-14T12:07:16;26.80;43.00
7876;DHT22;69649;53.712;9.680;2023-06-14T12:09:41;26.90;43.70
7876;DHT22;69649;53.712;9.680;2023-06-14T12:12:09;26.90;43.30
7876;DHT22;69649;53.712;9.680;2023-06-14T12:14:36;27.20;42.30
7876;DHT22;69649;53.712;9.680;2023-06-14T12:17:06;27.30;41.90
7876;DHT22;69649;53.712;9.680;2023-06-14T12:19:33;27.00;42.30
7876;DHT22;69649;53.712;9.680;2023-06-14T12:22:03;27.00;41.80
7876;DHT22;69649;53.712;9.680;2023-06-14T12:24:31;27.10;42.40
7876;DHT22;69649;53.712;9.680;2023-06-14T12:26:58;26.80;42.50
7876;DHT22;69649;53.712;9.680;2023-06-14T12:29:29;26.60;43.20
7876;DHT22;69649;53.712;9.680;2023-06-14T12:31:56;26.50;43.50
7876;DHT22;69649;53.712;9.680;2023-06-14T12:34:23;26.80;42.40
7876;DHT22;69649;53.712;9.680;2023-06-14T12:36:51;26.40;42.90
7876;DHT22;69649;53.712;9.680;2023-06-14T12:39:19;26.40;42.40
7876;DHT22;69649;53.712;9.680;2023-06-14T12:41:45;26.10;43.50
7876;DHT22;69649;53.712;9.680;2023-06-14T12:44:11;26.40;43.00
7876;DHT22;69649;53.712;9.680;2023-06-14T12:46:37;26.50;42.00
7876;DHT22;69649;53.712;9.680;2023-06-14T12:49:07;26.50;41.20
7876;DHT22;69649;53.712;9.680;2023-06-14T12:51:33;25.90;42.90
7876;DHT22;69649;53.712;9.680;2023-06-14T12:53:59;26.30;42.30
7876;DHT22;69649;53.712;9.680;2023-06-14T12:56:24;26.40;42.00
7876;DHT22;69649;53.712;9.680;2023-06-14T12:58:52;26.70;42.90
7876;DHT22;69649;53.712;9.680;2023-06-14T13:01:18;27.00;42.30
7876;DHT22;69649;53.712;9.680;2023-06-14T13:03:46;27.20;42.50
7876;DHT22;69649;53.712;9.680;2023-06-14T13:06:12;27.50;42.20
7876;DHT22;69649;53.712;9.680;2023-06-14T13:08:38;27.50;41.20
7876;DHT22;69649;53.712;9.680;2023-06-14T13:11:04;27.30;40.90
7876;DHT22;69649;53.712;9.680;2023-06-14T13:13:29;26.80;39.60
7876;DHT22;69649;53.712;9.680;2023-06-14T13:15:55;26.40;41.90
7876;DHT22;69649;53.712;9.680;2023-06-14T13:18:21;26.70;41.30
7876;DHT22;69649;53.712;9.680;2023-06-14T13:20:47;26.70;40.30
7876;DHT22;69649;53.712;9.680;2023-06-14T13:23:13;27.10;40.70
7876;DHT22;69649;53.712;9.680;2023-06-14T13:25:39;27.50;39.70
7876;DHT22;69649;53.712;9.680;2023-06-14T13:28:05;27.60;39.10
7876;DHT22;69649;53.712;9.680;2023-06-14T13:30:32;27.80;38.50
7876;DHT22;69649;53.712;9.680;2023-06-14T13:32:58;28.10;39.20
7876;DHT22;69649;53.712;9.680;2023-06-14T13:35:24;28.60;39.70
7876;DHT22;69649;53.712;9.680;2023-06-14T13:37:51;28.50;38.50
7876;DHT22;69649;53.712;9.680;2023-06-14T13:40:17;28.80;39.30
7876;DHT22;69649;53.712;9.680;2023-06-14T13:42:43;28.70;38.90
7876;DHT22;69649;53.712;9.680;2023-06-14T13:45:11;28.90;39.30
7876;DHT22;69649;53.712;9.680;2023-06-14T13:47:37;28.90;39.30
7876;DHT22;69649;53.712;9.680;2023-06-14T13:50:04;28.90;39.40
7876;DHT22;69649;53.712;9.680;2023-06-14T13:52:30;29.00;39.10
7876;DHT22;69649;53.712;9.680;2023-06-14T13:54:56;28.90;38.80
7876;DHT22;69649;53.712;9.680;2023-06-14T13:57:22;28.80;39.10
7876;DHT22;69649;53.712;9.680;2023-06-14T13:59:48;28.50;38.30
7876;DHT22;69649;53.712;9.680;2023-06-14T14:02:14;28.60;38.70
7876;DHT22;69649;53.712;9.680;2023-06-14T14:04:40;28.70;38.40
7876;DHT22;69649;53.712;9.680;2023-06-14T14:07:07;28.90;37.90
7876;DHT22;69649;53.712;9.680;2023-06-14T14:09:33;28.70;37.80
7876;DHT22;69649;53.712;9.680;2023-06-14T14:12:03;29.10;38.60
7876;DHT22;69649;53.712;9.680;2023-06-14T14:14:32;29.70;38.00
7876;DHT22;69649;53.712;9.680;2023-06-14T14:16:58;30.00;38.50
7876;DHT22;69649;53.712;9.680;2023-06-14T14:19:24;30.10;38.10
7876;DHT22;69649;53.712;9.680;2023-06-14T14:21:50;29.90;37.90
7876;DHT22;69649;53.712;9.680;2023-06-14T14:24:16;29.50;37.50
7876;DHT22;69649;53.712;9.680;2023-06-14T14:26:42;28.90;38.20
7876;DHT22;69649;53.712;9.680;2023-06-14T14:29:08;28.50;38.60
7876;DHT22;69649;53.712;9.680;2023-06-14T14:31:35;28.60;38.90
7876;DHT22;69649;53.712;9.680;2023-06-14T14:34:01;28.90;38.20
7876;DHT22;69649;53.712;9.680;2023-06-14T14:36:27;29.00;38.40
7876;DHT22;69649;53.712;9.680;2023-06-14T14:38:53;29.20;38.00
7876;DHT22;69649;53.712;9.680;2023-06-14T14:41:19;29.50;37.50
7876;DHT22;69649;53.712;9.680;2023-06-14T14:43:44;29.50;37.40
7876;DHT22;69649;53.712;9.680;2023-06-14T14:46:10;30.00;37.00
7876;DHT22;69649;53.712;9.680;2023-06-14T14:48:36;30.10;37.10
7876;DHT22;69649;53.712;9.680;2023-06-14T14:51:02;30.50;37.40
7876;DHT22;69649;53.712;9.680;2023-06-14T14:53:28;31.00;36.50
7876;DHT22;69649;53.712;9.680;2023-06-14T14:55:54;30.90;36.20
7876;DHT22;69649;53.712;9.680;2023-06-14T14:58:20;30.80;36.30
7876;DHT22;69649;53.712;9.680;2023-06-14T15:00:47;30.90;36.30
7876;DHT22;69649;53.712;9.680;2023-06-14T15:03:14;31.00;36.20
7876;DHT22;69649;53.712;9.680;2023-06-14T15:05:40;31.20;36.40
7876;DHT22;69649;53.712;9.680;2023-06-14T15:08:06;30.90;34.70
7876;DHT22;69649;53.712;9.680;2023-06-14T15:10:39;31.20;33.50
7876;DHT22;69649;53.712;9.680;2023-06-14T15:13:07;32.00;34.80
7876;DHT22;69649;53.712;9.680;2023-06-14T15:15:34;33.40;33.30
7876;DHT22;69649;53.712;9.680;2023-06-14T15:18:00;34.50;32.80
7876;DHT22;69649;53.712;9.680;2023-06-14T15:20:27;35.50;32.40
7876;DHT22;69649;53.712;9.680;2023-06-14T15:22:53;36.20;32.60
7876;DHT22;69649;53.712;9.680;2023-06-14T15:25:21;36.80;32.30
7876;DHT22;69649;53.712;9.680;2023-06-14T15:27:47;36.90;31.70
7876;DHT22;69649;53.712;9.680;2023-06-14T15:30:13;37.50;31.10
7876;DHT22;69649;53.712;9.680;2023-06-14T15:32:39;37.60;31.10
7876;DHT22;69649;53.712;9.680;2023-06-14T15:35:05;37.70;31.40
7876;DHT22;69649;53.712;9.680;2023-06-14T15:37:31;37.50;31.50
7876;DHT22;69649;53.712;9.680;2023-06-14T15:39:57;37.00;31.90
7876;DHT22;69649;53.712;9.680;2023-06-14T15:42:22;36.70;32.50
7876;DHT22;69649;53.712;9.680;2023-06-14T15:44:48;35.40;31.70
7876;DHT22;69649;53.712;9.680;2023-06-14T15:47:14;35.30;32.60
7876;DHT22;69649;53.712;9.680;2023-06-14T15:49:40;35.30;32.50
7876;DHT22;69649;53.712;9.680;2023-06-14T15:52:06;35.50;32.70
7876;DHT22;69649;53.712;9.680;2023-06-14T15:54:32;35.60;32.40